Decoded Metar for KGNB ( in ) (IATA:) | Meteo·Mobile Aviation Weather
aviador You're here:

KGNB Decoded Metar

in
Report Time2018-10-23 21:50:00
UTC Time2018-10-23 22:15:25
Flight Rules vfr VFR
Wind280° at 04 kt
W.Decomp.*RWY 27: 3.9 kt HW 0.7 kt RCW
W.Rank280° ranks 5
Current wind is below 280° avg. (9.2)
Visibility9999 m
Phenomena:N/A
Clouds:Broken 075 Hf
Overcast 090 Hf
Expected CloudBase > 6,800 ft AGL from Temp-Dew spread
Ceiling7,500 ft
Temp14°C
Dew Point-3°C (31% RH)
AAT10.2°C
QNH1023 hPa
Raw Report
KGNB 232150Z AUTO 28004KT 10SM BKN075 OVC090 14/M03 A3022 RMK AO2
T01361028=

Extra information for KGNB:More info

Social comments